sensor_id;sensor_type;location;lat;lon;timestamp;P1;durP1;ratioP1;P2;durP2;ratioP2
76155;SDS011;64906;51.290;7.348;2023-02-27T00:01:38;75.05;;;46.60;;
76155;SDS011;64906;51.290;7.348;2023-02-27T00:04:04;78.97;;;46.45;;
76155;SDS011;64906;51.290;7.348;2023-02-27T00:06:32;70.95;;;47.28;;
76155;SDS011;64906;51.290;7.348;2023-02-27T00:08:58;68.90;;;45.38;;
76155;SDS011;64906;51.290;7.348;2023-02-27T00:11:24;74.95;;;47.28;;
76155;SDS011;64906;51.290;7.348;2023-02-27T00:13:50;70.63;;;45.45;;
76155;SDS011;64906;51.290;7.348;2023-02-27T00:16:16;74.82;;;45.60;;
76155;SDS011;64906;51.290;7.348;2023-02-27T00:18:42;70.40;;;44.40;;
76155;SDS011;64906;51.290;7.348;2023-02-27T00:21:08;68.55;;;44.42;;
76155;SDS011;64906;51.290;7.348;2023-02-27T00:23:34;72.20;;;44.40;;
76155;SDS011;64906;51.290;7.348;2023-02-27T00:26:00;69.85;;;45.33;;
76155;SDS011;64906;51.290;7.348;2023-02-27T00:28:27;74.07;;;44.67;;
76155;SDS011;64906;51.290;7.348;2023-02-27T00:30:52;73.80;;;49.33;;
76155;SDS011;64906;51.290;7.348;2023-02-27T00:33:18;70.32;;;44.63;;
76155;SDS011;64906;51.290;7.348;2023-02-27T00:35:55;70.55;;;44.65;;
76155;SDS011;64906;51.290;7.348;2023-02-27T00:38:27;71.65;;;44.72;;
76155;SDS011;64906;51.290;7.348;2023-02-27T00:40:54;74.47;;;45.33;;
76155;SDS011;64906;51.290;7.348;2023-02-27T00:43:20;71.05;;;44.72;;
76155;SDS011;64906;51.290;7.348;2023-02-27T00:45:46;71.05;;;43.40;;
76155;SDS011;64906;51.290;7.348;2023-02-27T00:48:13;69.15;;;44.88;;
76155;SDS011;64906;51.290;7.348;2023-02-27T00:50:39;67.85;;;42.13;;
76155;SDS011;64906;51.290;7.348;2023-02-27T00:53:05;67.45;;;43.03;;
76155;SDS011;64906;51.290;7.348;2023-02-27T00:55:31;70.72;;;48.20;;
76155;SDS011;64906;51.290;7.348;2023-02-27T00:57:58;70.05;;;43.33;;
76155;SDS011;64906;51.290;7.348;2023-02-27T01:00:25;68.35;;;43.08;;
76155;SDS011;64906;51.290;7.348;2023-02-27T01:02:51;68.22;;;42.95;;
76155;SDS011;64906;51.290;7.348;2023-02-27T01:05:17;64.18;;;41.17;;
76155;SDS011;64906;51.290;7.348;2023-02-27T01:07:43;70.57;;;43.88;;
76155;SDS011;64906;51.290;7.348;2023-02-27T01:10:09;71.50;;;46.33;;
76155;SDS011;64906;51.290;7.348;2023-02-27T01:12:35;66.50;;;43.08;;
76155;SDS011;64906;51.290;7.348;2023-02-27T01:15:02;62.42;;;41.47;;
76155;SDS011;64906;51.290;7.348;2023-02-27T01:17:29;68.35;;;44.08;;
76155;SDS011;64906;51.290;7.348;2023-02-27T01:19:54;67.13;;;42.17;;
76155;SDS011;64906;51.290;7.348;2023-02-27T01:22:20;66.72;;;42.65;;
76155;SDS011;64906;51.290;7.348;2023-02-27T01:24:46;63.10;;;41.83;;
76155;SDS011;64906;51.290;7.348;2023-02-27T01:27:12;66.55;;;41.42;;
76155;SDS011;64906;51.290;7.348;2023-02-27T01:29:38;61.42;;;41.25;;
76155;SDS011;64906;51.290;7.348;2023-02-27T01:32:04;67.78;;;43.10;;
76155;SDS011;64906;51.290;7.348;2023-02-27T01:34:29;69.93;;;47.72;;
76155;SDS011;64906;51.290;7.348;2023-02-27T01:36:55;62.78;;;39.85;;
76155;SDS011;64906;51.290;7.348;2023-02-27T01:39:21;61.03;;;39.42;;
76155;SDS011;64906;51.290;7.348;2023-02-27T01:41:48;67.18;;;42.08;;
76155;SDS011;64906;51.290;7.348;2023-02-27T01:44:14;62.85;;;41.10;;
76155;SDS011;64906;51.290;7.348;2023-02-27T01:46:40;66.60;;;41.38;;
76155;SDS011;64906;51.290;7.348;2023-02-27T01:49:15;65.05;;;42.50;;
76155;SDS011;64906;51.290;7.348;2023-02-27T01:51:50;64.32;;;40.28;;
76155;SDS011;64906;51.290;7.348;2023-02-27T01:57:23;64.35;;;40.35;;
76155;SDS011;64906;51.290;7.348;2023-02-27T01:59:50;67.57;;;40.22;;
76155;SDS011;64906;51.290;7.348;2023-02-27T02:02:17;63.72;;;40.65;;
76155;SDS011;64906;51.290;7.348;2023-02-27T02:04:47;67.18;;;39.83;;
76155;SDS011;64906;51.290;7.348;2023-02-27T02:07:16;60.95;;;39.40;;
76155;SDS011;64906;51.290;7.348;2023-02-27T02:09:55;62.03;;;39.95;;
76155;SDS011;64906;51.290;7.348;2023-02-27T02:12:26;62.47;;;39.53;;
76155;SDS011;64906;51.290;7.348;2023-02-27T02:14:54;64.35;;;39.95;;
76155;SDS011;64906;51.290;7.348;2023-02-27T02:17:23;62.38;;;40.40;;
76155;SDS011;64906;51.290;7.348;2023-02-27T02:29:04;61.95;;;37.97;;
76155;SDS011;64906;51.290;7.348;2023-02-27T02:48:24;60.65;;;38.95;;
76155;SDS011;64906;51.290;7.348;2023-02-27T02:51:10;58.47;;;38.03;;
76155;SDS011;64906;51.290;7.348;2023-02-27T02:53:58;58.78;;;37.47;;
76155;SDS011;64906;51.290;7.348;2023-02-27T02:56:43;56.55;;;38.05;;
76155;SDS011;64906;51.290;7.348;2023-02-27T02:59:25;58.80;;;37.85;;
76155;SDS011;64906;51.290;7.348;2023-02-27T03:02:03;61.63;;;37.45;;
76155;SDS011;64906;51.290;7.348;2023-02-27T03:04:40;61.22;;;38.55;;
76155;SDS011;64906;51.290;7.348;2023-02-27T03:12:20;60.13;;;38.58;;
76155;SDS011;64906;51.290;7.348;2023-02-27T03:14:51;57.67;;;37.83;;
76155;SDS011;64906;51.290;7.348;2023-02-27T03:17:40;56.45;;;36.50;;
76155;SDS011;64906;51.290;7.348;2023-02-27T03:20:21;60.15;;;37.17;;
76155;SDS011;64906;51.290;7.348;2023-02-27T03:22:51;56.20;;;36.63;;
76155;SDS011;64906;51.290;7.348;2023-02-27T03:25:20;57.42;;;37.78;;
76155;SDS011;64906;51.290;7.348;2023-02-27T03:28:09;55.88;;;37.25;;
76155;SDS011;64906;51.290;7.348;2023-02-27T03:30:47;53.28;;;35.78;;
76155;SDS011;64906;51.290;7.348;2023-02-27T03:33:21;55.10;;;35.45;;
76155;SDS011;64906;51.290;7.348;2023-02-27T03:36:14;59.85;;;37.08;;
76155;SDS011;64906;51.290;7.348;2023-02-27T03:39:01;55.97;;;37.42;;
76155;SDS011;64906;51.290;7.348;2023-02-27T03:41:35;56.13;;;37.38;;
76155;SDS011;64906;51.290;7.348;2023-02-27T03:47:12;57.15;;;37.05;;
76155;SDS011;64906;51.290;7.348;2023-02-27T03:49:38;56.80;;;35.50;;
76155;SDS011;64906;51.290;7.348;2023-02-27T03:52:03;52.33;;;34.25;;
76155;SDS011;64906;51.290;7.348;2023-02-27T03:54:31;55.90;;;36.75;;
76155;SDS011;64906;51.290;7.348;2023-02-27T03:57:05;56.13;;;36.38;;
76155;SDS011;64906;51.290;7.348;2023-02-27T03:59:32;52.75;;;36.20;;
76155;SDS011;64906;51.290;7.348;2023-02-27T04:02:00;51.72;;;34.63;;
76155;SDS011;64906;51.290;7.348;2023-02-27T04:04:28;51.13;;;35.63;;
76155;SDS011;64906;51.290;7.348;2023-02-27T04:07:08;56.58;;;39.55;;
76155;SDS011;64906;51.290;7.348;2023-02-27T04:09:50;55.13;;;35.03;;
76155;SDS011;64906;51.290;7.348;2023-02-27T04:15:31;52.92;;;34.28;;
76155;SDS011;64906;51.290;7.348;2023-02-27T04:21:27;52.97;;;34.92;;
76155;SDS011;64906;51.290;7.348;2023-02-27T04:24:19;54.58;;;34.55;;
76155;SDS011;64906;51.290;7.348;2023-02-27T04:32:32;50.10;;;33.17;;
76155;SDS011;64906;51.290;7.348;2023-02-27T04:35:24;50.15;;;33.17;;
76155;SDS011;64906;51.290;7.348;2023-02-27T04:38:01;51.83;;;33.92;;
76155;SDS011;64906;51.290;7.348;2023-02-27T04:40:35;50.10;;;33.85;;
76155;SDS011;64906;51.290;7.348;2023-02-27T04:43:07;52.45;;;33.83;;
76155;SDS011;64906;51.290;7.348;2023-02-27T04:45:36;51.53;;;35.05;;
76155;SDS011;64906;51.290;7.348;2023-02-27T04:50:58;52.58;;;34.33;;
76155;SDS011;64906;51.290;7.348;2023-02-27T04:53:52;51.03;;;34.35;;
76155;SDS011;64906;51.290;7.348;2023-02-27T04:56:24;49.80;;;33.70;;
76155;SDS011;64906;51.290;7.348;2023-02-27T04:58:58;51.60;;;34.45;;
76155;SDS011;64906;51.290;7.348;2023-02-27T05:01:33;53.28;;;33.28;;
76155;SDS011;64906;51.290;7.348;2023-02-27T05:04:06;51.85;;;33.40;;
76155;SDS011;64906;51.290;7.348;2023-02-27T05:06:38;54.15;;;33.53;;
76155;SDS011;64906;51.290;7.348;2023-02-27T05:09:11;50.75;;;33.88;;
76155;SDS011;64906;51.290;7.348;2023-02-27T05:17:37;47.90;;;32.60;;
76155;SDS011;64906;51.290;7.348;2023-02-27T05:20:16;48.45;;;33.03;;
76155;SDS011;64906;51.290;7.348;2023-02-27T05:28:18;48.00;;;31.30;;
76155;SDS011;64906;51.290;7.348;2023-02-27T05:31:14;47.03;;;31.75;;
76155;SDS011;64906;51.290;7.348;2023-02-27T05:33:49;50.63;;;32.88;;
76155;SDS011;64906;51.290;7.348;2023-02-27T05:39:00;52.42;;;33.55;;
76155;SDS011;64906;51.290;7.348;2023-02-27T05:41:43;48.10;;;32.80;;
76155;SDS011;64906;51.290;7.348;2023-02-27T05:44:38;49.92;;;32.80;;
76155;SDS011;64906;51.290;7.348;2023-02-27T05:47:19;48.90;;;32.10;;
76155;SDS011;64906;51.290;7.348;2023-02-27T05:49:55;49.35;;;31.38;;
76155;SDS011;64906;51.290;7.348;2023-02-27T05:52:27;47.08;;;31.25;;
76155;SDS011;64906;51.290;7.348;2023-02-27T05:55:07;47.47;;;33.85;;
76155;SDS011;64906;51.290;7.348;2023-02-27T05:57:44;49.17;;;32.58;;
76155;SDS011;64906;51.290;7.348;2023-02-27T06:02:44;46.42;;;30.25;;
76155;SDS011;64906;51.290;7.348;2023-02-27T06:05:12;46.63;;;31.17;;
76155;SDS011;64906;51.290;7.348;2023-02-27T06:07:39;47.22;;;31.55;;
76155;SDS011;64906;51.290;7.348;2023-02-27T06:10:05;47.92;;;32.08;;
76155;SDS011;64906;51.290;7.348;2023-02-27T06:12:31;47.00;;;31.15;;
76155;SDS011;64906;51.290;7.348;2023-02-27T06:14:57;47.15;;;31.35;;
76155;SDS011;64906;51.290;7.348;2023-02-27T06:17:22;48.20;;;32.47;;
76155;SDS011;64906;51.290;7.348;2023-02-27T06:19:48;46.67;;;31.25;;
76155;SDS011;64906;51.290;7.348;2023-02-27T06:22:14;51.90;;;34.35;;
76155;SDS011;64906;51.290;7.348;2023-02-27T06:24:40;46.67;;;30.85;;
76155;SDS011;64906;51.290;7.348;2023-02-27T06:27:06;45.42;;;29.83;;
76155;SDS011;64906;51.290;7.348;2023-02-27T06:29:31;44.65;;;30.25;;
76155;SDS011;64906;51.290;7.348;2023-02-27T06:31:57;46.28;;;31.15;;
76155;SDS011;64906;51.290;7.348;2023-02-27T06:34:23;47.60;;;31.73;;
76155;SDS011;64906;51.290;7.348;2023-02-27T06:36:49;46.83;;;30.25;;
76155;SDS011;64906;51.290;7.348;2023-02-27T06:39:15;47.03;;;30.65;;
76155;SDS011;64906;51.290;7.348;2023-02-27T06:41:41;47.78;;;32.05;;
76155;SDS011;64906;51.290;7.348;2023-02-27T06:44:06;42.75;;;29.33;;
76155;SDS011;64906;51.290;7.348;2023-02-27T06:46:32;41.97;;;28.58;;
76155;SDS011;64906;51.290;7.348;2023-02-27T06:48:58;45.92;;;31.20;;
76155;SDS011;64906;51.290;7.348;2023-02-27T06:51:24;46.05;;;29.65;;
76155;SDS011;64906;51.290;7.348;2023-02-27T06:53:50;49.30;;;33.33;;
76155;SDS011;64906;51.290;7.348;2023-02-27T06:56:16;47.58;;;29.10;;
76155;SDS011;64906;51.290;7.348;2023-02-27T06:58:42;44.88;;;29.75;;
76155;SDS011;64906;51.290;7.348;2023-02-27T07:01:08;43.25;;;30.35;;
76155;SDS011;64906;51.290;7.348;2023-02-27T07:03:34;42.65;;;29.20;;
76155;SDS011;64906;51.290;7.348;2023-02-27T07:06:00;44.65;;;29.73;;
76155;SDS011;64906;51.290;7.348;2023-02-27T07:08:26;41.72;;;28.73;;
76155;SDS011;64906;51.290;7.348;2023-02-27T07:10:52;41.85;;;28.65;;
76155;SDS011;64906;51.290;7.348;2023-02-27T07:13:18;43.85;;;28.65;;
76155;SDS011;64906;51.290;7.348;2023-02-27T07:15:44;46.05;;;29.25;;
76155;SDS011;64906;51.290;7.348;2023-02-27T07:18:10;44.92;;;28.90;;
76155;SDS011;64906;51.290;7.348;2023-02-27T07:20:36;43.97;;;29.38;;
76155;SDS011;64906;51.290;7.348;2023-02-27T07:23:02;43.80;;;29.05;;
76155;SDS011;64906;51.290;7.348;2023-02-27T07:25:28;44.67;;;31.65;;
76155;SDS011;64906;51.290;7.348;2023-02-27T07:27:54;42.95;;;28.35;;
76155;SDS011;64906;51.290;7.348;2023-02-27T07:30:20;42.65;;;28.35;;
76155;SDS011;64906;51.290;7.348;2023-02-27T07:32:46;44.38;;;29.85;;
76155;SDS011;64906;51.290;7.348;2023-02-27T07:35:12;42.65;;;28.33;;
76155;SDS011;64906;51.290;7.348;2023-02-27T07:37:38;42.58;;;29.15;;
76155;SDS011;64906;51.290;7.348;2023-02-27T07:40:04;43.50;;;27.98;;
76155;SDS011;64906;51.290;7.348;2023-02-27T07:42:32;41.53;;;28.15;;
76155;SDS011;64906;51.290;7.348;2023-02-27T07:44:58;40.60;;;27.52;;
76155;SDS011;64906;51.290;7.348;2023-02-27T07:47:24;42.00;;;28.35;;
76155;SDS011;64906;51.290;7.348;2023-02-27T07:49:51;44.08;;;28.20;;
76155;SDS011;64906;51.290;7.348;2023-02-27T07:52:17;41.47;;;27.88;;
76155;SDS011;64906;51.290;7.348;2023-02-27T07:54:43;43.33;;;32.05;;
76155;SDS011;64906;51.290;7.348;2023-02-27T07:57:09;41.17;;;28.10;;
76155;SDS011;64906;51.290;7.348;2023-02-27T07:59:35;41.33;;;27.83;;
76155;SDS011;64906;51.290;7.348;2023-02-27T08:02:00;40.97;;;27.75;;
76155;SDS011;64906;51.290;7.348;2023-02-27T08:04:26;40.58;;;26.77;;
76155;SDS011;64906;51.290;7.348;2023-02-27T08:06:52;39.50;;;26.70;;
76155;SDS011;64906;51.290;7.348;2023-02-27T08:09:18;43.50;;;29.48;;
76155;SDS011;64906;51.290;7.348;2023-02-27T08:11:44;41.40;;;27.93;;
76155;SDS011;64906;51.290;7.348;2023-02-27T08:14:09;39.80;;;26.42;;
76155;SDS011;64906;51.290;7.348;2023-02-27T08:16:35;39.45;;;29.17;;
76155;SDS011;64906;51.290;7.348;2023-02-27T08:19:01;40.17;;;27.13;;
76155;SDS011;64906;51.290;7.348;2023-02-27T08:21:27;41.03;;;27.40;;
76155;SDS011;64906;51.290;7.348;2023-02-27T08:23:54;40.25;;;26.88;;
76155;SDS011;64906;51.290;7.348;2023-02-27T08:26:20;38.45;;;25.55;;
76155;SDS011;64906;51.290;7.348;2023-02-27T08:28:46;40.70;;;27.92;;
76155;SDS011;64906;51.290;7.348;2023-02-27T08:31:12;39.90;;;26.55;;
76155;SDS011;64906;51.290;7.348;2023-02-27T08:33:39;39.00;;;26.73;;
76155;SDS011;64906;51.290;7.348;2023-02-27T08:36:05;39.70;;;26.63;;
76155;SDS011;64906;51.290;7.348;2023-02-27T08:38:32;37.58;;;25.92;;
76155;SDS011;64906;51.290;7.348;2023-02-27T08:40:58;42.58;;;28.10;;
76155;SDS011;64906;51.290;7.348;2023-02-27T08:43:23;39.10;;;29.00;;
76155;SDS011;64906;51.290;7.348;2023-02-27T08:45:50;37.53;;;26.73;;
76155;SDS011;64906;51.290;7.348;2023-02-27T08:48:16;37.03;;;25.83;;
76155;SDS011;64906;51.290;7.348;2023-02-27T08:50:43;40.22;;;26.08;;
76155;SDS011;64906;51.290;7.348;2023-02-27T08:53:11;38.80;;;26.00;;
76155;SDS011;64906;51.290;7.348;2023-02-27T08:55:38;35.72;;;25.77;;
76155;SDS011;64906;51.290;7.348;2023-02-27T08:58:04;37.55;;;26.30;;
76155;SDS011;64906;51.290;7.348;2023-02-27T09:00:30;40.38;;;27.13;;
76155;SDS011;64906;51.290;7.348;2023-02-27T09:02:57;40.22;;;27.20;;
76155;SDS011;64906;51.290;7.348;2023-02-27T09:05:23;37.97;;;26.77;;
76155;SDS011;64906;51.290;7.348;2023-02-27T09:07:48;45.00;;;29.42;;
76155;SDS011;64906;51.290;7.348;2023-02-27T09:10:15;46.25;;;30.80;;
76155;SDS011;64906;51.290;7.348;2023-02-27T09:12:42;47.60;;;32.13;;
76155;SDS011;64906;51.290;7.348;2023-02-27T09:15:08;50.20;;;33.58;;
76155;SDS011;64906;51.290;7.348;2023-02-27T09:17:35;53.40;;;35.33;;
76155;SDS011;64906;51.290;7.348;2023-02-27T09:20:02;57.72;;;38.10;;
76155;SDS011;64906;51.290;7.348;2023-02-27T09:22:29;55.85;;;38.65;;
76155;SDS011;64906;51.290;7.348;2023-02-27T09:24:55;61.08;;;40.80;;
76155;SDS011;64906;51.290;7.348;2023-02-27T09:27:21;62.20;;;41.20;;
76155;SDS011;64906;51.290;7.348;2023-02-27T09:29:48;62.75;;;42.13;;
76155;SDS011;64906;51.290;7.348;2023-02-27T09:32:22;66.55;;;44.15;;
76155;SDS011;64906;51.290;7.348;2023-02-27T09:34:50;69.40;;;44.03;;
76155;SDS011;64906;51.290;7.348;2023-02-27T09:37:16;67.55;;;45.55;;
76155;SDS011;64906;51.290;7.348;2023-02-27T09:39:43;69.43;;;45.92;;
76155;SDS011;64906;51.290;7.348;2023-02-27T09:42:17;74.35;;;47.08;;
76155;SDS011;64906;51.290;7.348;2023-02-27T09:44:59;73.22;;;48.83;;
76155;SDS011;64906;51.290;7.348;2023-02-27T09:47:35;77.38;;;50.60;;
76155;SDS011;64906;51.290;7.348;2023-02-27T09:50:06;76.07;;;49.40;;
76155;SDS011;64906;51.290;7.348;2023-02-27T09:52:48;76.20;;;48.85;;
76155;SDS011;64906;51.290;7.348;2023-02-27T09:55:16;80.05;;;53.85;;
76155;SDS011;64906;51.290;7.348;2023-02-27T09:57:46;73.60;;;48.25;;
76155;SDS011;64906;51.290;7.348;2023-02-27T10:00:33;72.45;;;47.78;;
76155;SDS011;64906;51.290;7.348;2023-02-27T10:08:52;75.32;;;46.63;;
76155;SDS011;64906;51.290;7.348;2023-02-27T10:11:45;71.88;;;46.67;;
76155;SDS011;64906;51.290;7.348;2023-02-27T10:14:24;72.55;;;45.70;;
76155;SDS011;64906;51.290;7.348;2023-02-27T10:16:54;66.95;;;43.80;;
76155;SDS011;64906;51.290;7.348;2023-02-27T10:19:24;67.60;;;44.42;;
76155;SDS011;64906;51.290;7.348;2023-02-27T10:21:53;68.50;;;42.78;;
76155;SDS011;64906;51.290;7.348;2023-02-27T10:26:54;66.63;;;42.28;;
76155;SDS011;64906;51.290;7.348;2023-02-27T10:29:31;59.53;;;40.00;;
76155;SDS011;64906;51.290;7.348;2023-02-27T10:35:15;60.30;;;37.80;;
76155;SDS011;64906;51.290;7.348;2023-02-27T10:38:01;58.25;;;36.47;;
76155;SDS011;64906;51.290;7.348;2023-02-27T10:40:30;60.50;;;36.25;;
76155;SDS011;64906;51.290;7.348;2023-02-27T10:43:00;58.60;;;37.47;;
76155;SDS011;64906;51.290;7.348;2023-02-27T10:45:27;57.85;;;37.42;;
76155;SDS011;64906;51.290;7.348;2023-02-27T10:47:53;53.90;;;34.58;;
76155;SDS011;64906;51.290;7.348;2023-02-27T10:52:53;55.50;;;33.08;;
76155;SDS011;64906;51.290;7.348;2023-02-27T10:55:22;52.33;;;31.88;;
76155;SDS011;64906;51.290;7.348;2023-02-27T10:57:55;51.08;;;32.35;;
76155;SDS011;64906;51.290;7.348;2023-02-27T11:00:44;49.35;;;29.83;;
76155;SDS011;64906;51.290;7.348;2023-02-27T11:03:31;45.65;;;29.48;;
76155;SDS011;64906;51.290;7.348;2023-02-27T11:05:59;46.65;;;28.98;;
76155;SDS011;64906;51.290;7.348;2023-02-27T11:08:30;46.78;;;29.70;;
76155;SDS011;64906;51.290;7.348;2023-02-27T11:11:08;47.35;;;28.88;;
76155;SDS011;64906;51.290;7.348;2023-02-27T11:13:39;48.65;;;31.95;;
76155;SDS011;64906;51.290;7.348;2023-02-27T11:18:37;47.30;;;27.42;;
76155;SDS011;64906;51.290;7.348;2023-02-27T11:23:37;50.00;;;29.20;;
76155;SDS011;64906;51.290;7.348;2023-02-27T11:29:15;47.35;;;27.83;;
76155;SDS011;64906;51.290;7.348;2023-02-27T11:31:46;42.72;;;27.10;;
76155;SDS011;64906;51.290;7.348;2023-02-27T11:36:54;45.67;;;29.70;;
76155;SDS011;64906;51.290;7.348;2023-02-27T11:42:14;43.00;;;26.98;;
76155;SDS011;64906;51.290;7.348;2023-02-27T11:44:56;49.35;;;29.85;;
76155;SDS011;64906;51.290;7.348;2023-02-27T11:47:28;66.05;;;38.38;;
76155;SDS011;64906;51.290;7.348;2023-02-27T11:52:32;74.22;;;43.55;;
76155;SDS011;64906;51.290;7.348;2023-02-27T11:55:36;73.72;;;42.08;;
76155;SDS011;64906;51.290;7.348;2023-02-27T11:58:10;71.80;;;42.85;;
76155;SDS011;64906;51.290;7.348;2023-02-27T12:00:48;72.47;;;40.78;;
76155;SDS011;64906;51.290;7.348;2023-02-27T12:05:56;70.15;;;41.05;;
76155;SDS011;64906;51.290;7.348;2023-02-27T12:11:43;76.95;;;40.13;;
76155;SDS011;64906;51.290;7.348;2023-02-27T12:16:49;70.57;;;41.33;;
76155;SDS011;64906;51.290;7.348;2023-02-27T12:22:33;68.80;;;39.83;;
76155;SDS011;64906;51.290;7.348;2023-02-27T12:27:44;69.45;;;42.08;;
76155;SDS011;64906;51.290;7.348;2023-02-27T12:30:28;67.13;;;39.53;;
76155;SDS011;64906;51.290;7.348;2023-02-27T12:33:08;73.75;;;39.55;;
76155;SDS011;64906;51.290;7.348;2023-02-27T12:35:43;65.00;;;39.70;;
76155;SDS011;64906;51.290;7.348;2023-02-27T12:38:15;66.45;;;39.00;;
76155;SDS011;64906;51.290;7.348;2023-02-27T12:46:19;72.70;;;41.53;;
76155;SDS011;64906;51.290;7.348;2023-02-27T12:49:00;73.68;;;42.45;;
76155;SDS011;64906;51.290;7.348;2023-02-27T12:59:53;77.95;;;46.13;;
76155;SDS011;64906;51.290;7.348;2023-02-27T13:02:46;70.70;;;43.90;;
76155;SDS011;64906;51.290;7.348;2023-02-27T13:05:16;74.18;;;45.42;;
76155;SDS011;64906;51.290;7.348;2023-02-27T13:13:05;77.97;;;43.83;;
76155;SDS011;64906;51.290;7.348;2023-02-27T13:18:35;80.35;;;43.33;;
76155;SDS011;64906;51.290;7.348;2023-02-27T13:24:43;70.65;;;41.42;;
76155;SDS011;64906;51.290;7.348;2023-02-27T13:29:18;74.45;;;43.72;;
76155;SDS011;64906;51.290;7.348;2023-02-27T13:31:57;73.10;;;41.30;;
76155;SDS011;64906;51.290;7.348;2023-02-27T13:34:46;68.78;;;42.85;;
76155;SDS011;64906;51.290;7.348;2023-02-27T13:37:17;75.55;;;43.50;;
76155;SDS011;64906;51.290;7.348;2023-02-27T13:44:55;65.75;;;40.95;;
76155;SDS011;64906;51.290;7.348;2023-02-27T13:49:56;67.65;;;41.60;;
76155;SDS011;64906;51.290;7.348;2023-02-27T13:52:27;69.18;;;40.72;;
76155;SDS011;64906;51.290;7.348;2023-02-27T13:54:55;70.28;;;43.20;;
76155;SDS011;64906;51.290;7.348;2023-02-27T13:57:22;69.10;;;42.30;;
76155;SDS011;64906;51.290;7.348;2023-02-27T13:59:54;68.90;;;41.35;;
76155;SDS011;64906;51.290;7.348;2023-02-27T14:02:38;68.80;;;41.65;;
76155;SDS011;64906;51.290;7.348;2023-02-27T14:05:09;67.32;;;40.47;;
76155;SDS011;64906;51.290;7.348;2023-02-27T14:19:25;70.28;;;41.00;;
76155;SDS011;64906;51.290;7.348;2023-02-27T14:24:19;68.07;;;38.70;;
76155;SDS011;64906;51.290;7.348;2023-02-27T14:26:50;62.85;;;39.30;;
76155;SDS011;64906;51.290;7.348;2023-02-27T14:29:27;68.32;;;38.55;;
76155;SDS011;64906;51.290;7.348;2023-02-27T14:31:59;65.72;;;38.58;;
76155;SDS011;64906;51.290;7.348;2023-02-27T14:34:33;64.88;;;38.33;;
76155;SDS011;64906;51.290;7.348;2023-02-27T14:37:03;65.22;;;39.78;;
76155;SDS011;64906;51.290;7.348;2023-02-27T14:39:35;67.07;;;40.08;;
76155;SDS011;64906;51.290;7.348;2023-02-27T14:45:22;63.42;;;38.42;;
76155;SDS011;64906;51.290;7.348;2023-02-27T14:47:49;68.53;;;38.45;;
76155;SDS011;64906;51.290;7.348;2023-02-27T14:50:24;65.35;;;37.40;;
76155;SDS011;64906;51.290;7.348;2023-02-27T14:52:53;64.65;;;37.50;;
76155;SDS011;64906;51.290;7.348;2023-02-27T14:55:24;67.18;;;38.00;;
76155;SDS011;64906;51.290;7.348;2023-02-27T14:57:54;63.42;;;37.58;;
76155;SDS011;64906;51.290;7.348;2023-02-27T15:03:09;62.67;;;38.22;;
76155;SDS011;64906;51.290;7.348;2023-02-27T15:05:37;63.55;;;37.40;;
76155;SDS011;64906;51.290;7.348;2023-02-27T15:08:03;67.95;;;36.75;;
76155;SDS011;64906;51.290;7.348;2023-02-27T15:10:29;66.72;;;37.33;;
76155;SDS011;64906;51.290;7.348;2023-02-27T15:12:56;61.85;;;37.65;;
76155;SDS011;64906;51.290;7.348;2023-02-27T15:15:24;55.42;;;34.90;;
76155;SDS011;64906;51.290;7.348;2023-02-27T15:17:50;62.53;;;37.00;;
76155;SDS011;64906;51.290;7.348;2023-02-27T15:20:22;59.35;;;34.42;;
76155;SDS011;64906;51.290;7.348;2023-02-27T15:22:52;58.22;;;36.20;;
76155;SDS011;64906;51.290;7.348;2023-02-27T15:25:25;58.63;;;35.17;;
76155;SDS011;64906;51.290;7.348;2023-02-27T15:28:01;55.97;;;33.78;;
76155;SDS011;64906;51.290;7.348;2023-02-27T15:30:40;56.53;;;34.80;;
76155;SDS011;64906;51.290;7.348;2023-02-27T15:33:10;62.50;;;37.80;;
76155;SDS011;64906;51.290;7.348;2023-02-27T15:35:41;56.58;;;34.55;;
76155;SDS011;64906;51.290;7.348;2023-02-27T15:38:30;56.58;;;34.30;;
76155;SDS011;64906;51.290;7.348;2023-02-27T15:40:59;59.67;;;36.13;;
76155;SDS011;64906;51.290;7.348;2023-02-27T15:43:27;60.70;;;35.70;;
76155;SDS011;64906;51.290;7.348;2023-02-27T15:45:54;58.13;;;33.53;;
76155;SDS011;64906;51.290;7.348;2023-02-27T15:48:22;57.85;;;37.05;;
76155;SDS011;64906;51.290;7.348;2023-02-27T15:50:52;59.90;;;34.92;;
76155;SDS011;64906;51.290;7.348;2023-02-27T15:53:24;56.83;;;33.22;;
76155;SDS011;64906;51.290;7.348;2023-02-27T15:55:53;53.22;;;34.75;;
76155;SDS011;64906;51.290;7.348;2023-02-27T16:01:12;58.38;;;37.47;;
76155;SDS011;64906;51.290;7.348;2023-02-27T16:03:52;54.40;;;33.53;;
76155;SDS011;64906;51.290;7.348;2023-02-27T16:06:21;58.65;;;34.60;;
76155;SDS011;64906;51.290;7.348;2023-02-27T16:09:01;56.05;;;34.53;;
76155;SDS011;64906;51.290;7.348;2023-02-27T16:11:29;57.20;;;33.25;;
76155;SDS011;64906;51.290;7.348;2023-02-27T16:13:57;53.60;;;32.15;;
76155;SDS011;64906;51.290;7.348;2023-02-27T16:16:31;54.55;;;33.78;;
76155;SDS011;64906;51.290;7.348;2023-02-27T16:19:45;52.47;;;32.80;;
76155;SDS011;64906;51.290;7.348;2023-02-27T16:22:05;57.58;;;33.85;;
76155;SDS011;64906;51.290;7.348;2023-02-27T16:24:31;53.15;;;33.17;;
76155;SDS011;64906;51.290;7.348;2023-02-27T16:26:58;54.30;;;32.78;;
76155;SDS011;64906;51.290;7.348;2023-02-27T16:29:35;54.42;;;32.00;;
76155;SDS011;64906;51.290;7.348;2023-02-27T16:32:13;53.35;;;32.53;;
76155;SDS011;64906;51.290;7.348;2023-02-27T16:35:19;52.85;;;33.05;;
76155;SDS011;64906;51.290;7.348;2023-02-27T16:37:47;49.50;;;31.27;;
76155;SDS011;64906;51.290;7.348;2023-02-27T16:40:16;54.42;;;31.80;;
76155;SDS011;64906;51.290;7.348;2023-02-27T16:42:44;58.13;;;32.67;;
76155;SDS011;64906;51.290;7.348;2023-02-27T16:45:18;53.60;;;32.00;;
76155;SDS011;64906;51.290;7.348;2023-02-27T16:47:49;54.53;;;31.77;;
76155;SDS011;64906;51.290;7.348;2023-02-27T16:53:05;50.72;;;30.38;;
76155;SDS011;64906;51.290;7.348;2023-02-27T16:55:32;53.13;;;32.25;;
76155;SDS011;64906;51.290;7.348;2023-02-27T16:57:58;51.75;;;31.63;;
76155;SDS011;64906;51.290;7.348;2023-02-27T17:00:24;52.05;;;32.03;;
76155;SDS011;64906;51.290;7.348;2023-02-27T17:02:50;49.60;;;30.98;;
76155;SDS011;64906;51.290;7.348;2023-02-27T17:05:16;49.67;;;31.27;;
76155;SDS011;64906;51.290;7.348;2023-02-27T17:07:43;53.33;;;30.92;;
76155;SDS011;64906;51.290;7.348;2023-02-27T17:10:13;51.58;;;32.00;;
76155;SDS011;64906;51.290;7.348;2023-02-27T17:15:08;50.10;;;30.70;;
76155;SDS011;64906;51.290;7.348;2023-02-27T17:17:34;48.75;;;31.17;;
76155;SDS011;64906;51.290;7.348;2023-02-27T17:20:00;56.20;;;31.85;;
76155;SDS011;64906;51.290;7.348;2023-02-27T17:22:29;51.45;;;30.42;;
76155;SDS011;64906;51.290;7.348;2023-02-27T17:24:58;52.42;;;30.08;;
76155;SDS011;64906;51.290;7.348;2023-02-27T17:27:24;50.10;;;31.48;;
76155;SDS011;64906;51.290;7.348;2023-02-27T17:29:49;50.25;;;30.02;;
76155;SDS011;64906;51.290;7.348;2023-02-27T17:32:15;48.22;;;30.50;;
76155;SDS011;64906;51.290;7.348;2023-02-27T17:34:41;49.55;;;29.65;;
76155;SDS011;64906;51.290;7.348;2023-02-27T17:37:07;45.90;;;28.73;;
76155;SDS011;64906;51.290;7.348;2023-02-27T17:39:33;45.28;;;28.45;;